EKAHYSSY

Guest
Details From EKAH - Aarhus
To YSSY - Sydney Intl
Flight Number -
Tags Decoded
Created
Modified
Stats Distance 11,563 nm / 21,414 km
Max Altitude 0 ft / 0 m
Waypoints 4
Social Downloads 0
Likes 0
Share VATSIM

Download

Looking for another format? Having issues loading an existing format? Contact us
Advertisement - Login to hide

Notes

Decoded

Route

ML DOSEL Y59 SY

ID Type Via Altitude Latitude Longitude Leg Dist Tot Dist Heading (true) Name
O ML NDB - 0 ft / 0 m 56.31862˚ 10.45933˚ - 0 nm - AARHUS NDB
DOSEL FIX - 0 ft / 0 m 44.27289˚ -88.01724˚ 3513 nm 3513 nm 304° / 220° -
Y59 APT - 0 ft / 0 m 42.14327˚ -95.96391˚ 370 nm 3884 nm 253° / 247° -
O SY VOR - 0 ft / 0 m -33.94278˚ 151.18083˚ 7678 nm 11562 nm 255° / 240° SYDNEY VOR-DME

Altitude Profile

Advertisement - Login to hide

Weather


0- 5 10 15 20 25 30 35+ Temperature / ° C

Clouds and Precipitation
Forecast for 2018-05-24 18:00 UTC. Updated 3 hours ago

Ground ~20,000 ft ~40,000 ft Winds

EKAH

Details ICAO EKAH (AAR)
Name Aarhus
Region Denmark / Faroe Islands
Timezone Europe/Copenhagen (UTC+2.0)
Stats Elevation 82 ft / 25 m (AMSL)
Location 56.304265° 10.619452°
Runways 2
Magnetic Variation 3.118° E

METAR

EKAH 241950Z AUTO 09005KT 9999NDV NCD 18/13 Q1027

Decode

TAF

TAF EKAH 241711Z 2418/2518 09005KT CAVOK= TAF EKBI 241711Z 2418/2518 08012KT CAVOK

Decode

Departure Runways

ID Width Length Bearing (true) Bearing (mag) Surface Threshold Offset Overrun Length
10L 75 ft / 23 m 9,081 ft / 2,768 m 100.30° 97.18° Asphalt 0 ft / 0 m 0 ft / 0 m
10R 148 ft / 45 m 8,837 ft / 2,693 m 100.29° 97.17° Asphalt 0 ft / 0 m 902 ft / 275 m
28L 148 ft / 45 m 8,837 ft / 2,693 m 280.33° 277.21° Asphalt 0 ft / 0 m 738 ft / 225 m
28R 75 ft / 23 m 9,081 ft / 2,768 m 280.34° 277.22° Asphalt 0 ft / 0 m 0 ft / 0 m

YSSY

Details ICAO YSSY (SYD)
Name Sydney Intl
Region Australia
Timezone Australia/Sydney (UTC+10.0)
Stats Elevation 21 ft / 6 m (AMSL)
Location -33.949273° 151.181347°
Runways 3
Magnetic Variation 12.604° E

METAR

YSSY 241930Z 18015KT 9999 FEW020 BKN060 17/11 Q1027 NOSIG

Decode

TAF

TAF YSSY 241715Z 2418/2524 21008KT 9999 FEW020 BKN040 FM250000 16012KT 9999 SCT040 FM251000 22008KT 9999 FEW035 FM251600 29008KT 9999 FEW030

Decode

Destination Runways

ID Width Length Bearing (true) Bearing (mag) Surface Threshold Offset Overrun Length
07 148 ft / 45 m 8,285 ft / 2,525 m 74.13° 61.53° Asphalt 0 ft / 0 m 0 ft / 0 m
16L 148 ft / 45 m 8,018 ft / 2,444 m 167.81° 155.21° Asphalt 758 ft / 231 m 0 ft / 0 m
16R 148 ft / 45 m 13,033 ft / 3,973 m 167.86° 155.26° Asphalt 279 ft / 85 m 0 ft / 0 m
25 148 ft / 45 m 8,285 ft / 2,525 m 254.12° 241.52° Asphalt 324 ft / 99 m 0 ft / 0 m
34L 148 ft / 45 m 13,033 ft / 3,973 m 347.85° 335.25° Asphalt 0 ft / 0 m 0 ft / 0 m
34R 148 ft / 45 m 8,018 ft / 2,444 m 347.81° 335.21° Asphalt 125 ft / 38 m 0 ft / 0 m

Approach Navaids

Runway Type Ident Frequency Range Bearing (true) Bearing (mag) Slope Elevation
07 Localiser ISY 109.90 MHz 18 nm / 33 km 74.15° 61.54° - 21 ft / 6 m (AMSL)
07 Glidescope ISY 109.90 MHz 10 nm / 19 km 74.12° 61.52° 3.00° 22 ft / 7 m (AMSL)
07 DME ISY 109.90 MHz 18 nm / 33 km - - - 20 ft / 6 m (AMSL)
16L Localiser ISS 110.90 MHz 18 nm / 33 km 167.90° 155.30° - 30 ft / 9 m (AMSL)
16L Glidescope ISS 110.90 MHz 10 nm / 19 km 167.81° 155.21° 3.00° 21 ft / 6 m (AMSL)
16L DME ISS 110.90 MHz 18 nm / 33 km - - - 30 ft / 9 m (AMSL)
16R Localiser IKS 109.50 MHz 18 nm / 33 km 167.38° 154.78° - 14 ft / 4 m (AMSL)
16R Glidescope IKS 109.50 MHz 10 nm / 19 km 167.85° 155.25° 3.00° 14 ft / 4 m (AMSL)
25 Localiser ISW 109.70 MHz 18 nm / 33 km 254.28° 241.67° - 13 ft / 4 m (AMSL)
25 Glidescope ISW 109.70 MHz 10 nm / 19 km 254.12° 241.52° 3.00° 13 ft / 4 m (AMSL)
25 DME ISW 109.70 MHz 18 nm / 33 km - - - 33 ft / 10 m (AMSL)
34L Localiser ISN 110.10 MHz 18 nm / 33 km 347.85° 335.24° - 8 ft / 2 m (AMSL)
34L Glidescope ISN 110.10 MHz 10 nm / 19 km 347.86° 335.25° 3.00° 14 ft / 4 m (AMSL)
34R Localiser IKN 109.30 MHz 18 nm / 33 km 347.84° 335.23° - 20 ft / 6 m (AMSL)
34R Glidescope IKN 109.30 MHz 10 nm / 19 km 347.81° 335.21° 3.00° 21 ft / 6 m (AMSL)
34R DME IKN 109.30 MHz 18 nm / 33 km - - - 20 ft / 6 m (AMSL)